sensor_id;sensor_type;location;lat;lon;timestamp;P1;durP1;ratioP1;P2;durP2;ratioP2
44428;SDS011;30134;47.866;-4.222;2022-07-23T00:00:42;3.72;;;1.80;;
44428;SDS011;30134;47.866;-4.222;2022-07-23T00:03:08;3.03;;;1.83;;
44428;SDS011;30134;47.866;-4.222;2022-07-23T00:05:34;3.03;;;1.80;;
44428;SDS011;30134;47.866;-4.222;2022-07-23T00:08:01;2.50;;;1.90;;
44428;SDS011;30134;47.866;-4.222;2022-07-23T00:10:26;2.15;;;1.70;;
44428;SDS011;30134;47.866;-4.222;2022-07-23T00:12:52;2.00;;;1.60;;
44428;SDS011;30134;47.866;-4.222;2022-07-23T00:15:18;3.25;;;1.83;;
44428;SDS011;30134;47.866;-4.222;2022-07-23T00:22:37;3.55;;;1.63;;
44428;SDS011;30134;47.866;-4.222;2022-07-23T00:25:14;2.35;;;1.50;;
44428;SDS011;30134;47.866;-4.222;2022-07-23T00:27:40;2.53;;;1.73;;
44428;SDS011;30134;47.866;-4.222;2022-07-23T00:30:07;1.67;;;1.58;;
44428;SDS011;30134;47.866;-4.222;2022-07-23T00:32:44;3.63;;;1.85;;
44428;SDS011;30134;47.866;-4.222;2022-07-23T00:35:21;3.28;;;1.42;;
44428;SDS011;30134;47.866;-4.222;2022-07-23T00:37:52;2.08;;;1.50;;
44428;SDS011;30134;47.866;-4.222;2022-07-23T00:40:20;2.80;;;1.70;;
44428;SDS011;30134;47.866;-4.222;2022-07-23T00:42:46;2.90;;;1.45;;
44428;SDS011;30134;47.866;-4.222;2022-07-23T00:45:12;2.08;;;1.42;;
44428;SDS011;30134;47.866;-4.222;2022-07-23T00:47:45;3.58;;;1.67;;
44428;SDS011;30134;47.866;-4.222;2022-07-23T00:50:11;2.42;;;1.73;;
44428;SDS011;30134;47.866;-4.222;2022-07-23T00:52:38;1.70;;;1.35;;
44428;SDS011;30134;47.866;-4.222;2022-07-23T00:55:05;2.40;;;1.65;;
44428;SDS011;30134;47.866;-4.222;2022-07-23T00:57:34;3.15;;;1.48;;
44428;SDS011;30134;47.866;-4.222;2022-07-23T01:00:04;2.13;;;1.77;;
44428;SDS011;30134;47.866;-4.222;2022-07-23T01:02:32;1.70;;;1.40;;
44428;SDS011;30134;47.866;-4.222;2022-07-23T01:04:58;3.10;;;1.63;;
44428;SDS011;30134;47.866;-4.222;2022-07-23T01:07:24;1.55;;;1.30;;
44428;SDS011;30134;47.866;-4.222;2022-07-23T01:09:51;2.50;;;1.63;;
44428;SDS011;30134;47.866;-4.222;2022-07-23T01:12:17;2.35;;;1.40;;
44428;SDS011;30134;47.866;-4.222;2022-07-23T01:14:44;2.38;;;1.50;;
44428;SDS011;30134;47.866;-4.222;2022-07-23T01:17:10;2.42;;;1.40;;
44428;SDS011;30134;47.866;-4.222;2022-07-23T01:19:36;2.88;;;1.70;;
44428;SDS011;30134;47.866;-4.222;2022-07-23T01:22:02;2.20;;;1.50;;
44428;SDS011;30134;47.866;-4.222;2022-07-23T01:24:29;1.88;;;1.45;;
44428;SDS011;30134;47.866;-4.222;2022-07-23T01:26:55;2.15;;;1.48;;
44428;SDS011;30134;47.866;-4.222;2022-07-23T01:29:21;1.63;;;1.40;;
44428;SDS011;30134;47.866;-4.222;2022-07-23T01:31:47;2.25;;;1.30;;
44428;SDS011;30134;47.866;-4.222;2022-07-23T01:34:13;1.55;;;1.27;;
44428;SDS011;30134;47.866;-4.222;2022-07-23T01:36:40;1.95;;;1.50;;
44428;SDS011;30134;47.866;-4.222;2022-07-23T01:39:06;1.88;;;1.50;;
44428;SDS011;30134;47.866;-4.222;2022-07-23T01:41:32;2.28;;;1.63;;
44428;SDS011;30134;47.866;-4.222;2022-07-23T01:43:59;1.25;;;1.15;;
44428;SDS011;30134;47.866;-4.222;2022-07-23T01:46:24;2.15;;;1.35;;
44428;SDS011;30134;47.866;-4.222;2022-07-23T01:48:58;2.28;;;1.65;;
44428;SDS011;30134;47.866;-4.222;2022-07-23T01:51:23;1.67;;;1.20;;
44428;SDS011;30134;47.866;-4.222;2022-07-23T01:53:49;2.17;;;1.30;;
44428;SDS011;30134;47.866;-4.222;2022-07-23T01:56:15;1.75;;;1.27;;
44428;SDS011;30134;47.866;-4.222;2022-07-23T01:58:41;1.52;;;1.20;;
44428;SDS011;30134;47.866;-4.222;2022-07-23T02:01:07;2.45;;;1.40;;
44428;SDS011;30134;47.866;-4.222;2022-07-23T02:03:33;1.65;;;1.33;;
44428;SDS011;30134;47.866;-4.222;2022-07-23T02:05:59;3.78;;;1.20;;
44428;SDS011;30134;47.866;-4.222;2022-07-23T02:08:25;1.38;;;1.13;;
44428;SDS011;30134;47.866;-4.222;2022-07-23T02:10:51;1.45;;;1.27;;
44428;SDS011;30134;47.866;-4.222;2022-07-23T02:13:17;2.00;;;1.38;;
44428;SDS011;30134;47.866;-4.222;2022-07-23T02:15:44;1.33;;;1.20;;
44428;SDS011;30134;47.866;-4.222;2022-07-23T02:18:12;2.17;;;1.35;;
44428;SDS011;30134;47.866;-4.222;2022-07-23T02:20:38;1.65;;;1.30;;
44428;SDS011;30134;47.866;-4.222;2022-07-23T02:23:10;1.92;;;1.30;;
44428;SDS011;30134;47.866;-4.222;2022-07-23T02:25:36;1.08;;;1.00;;
44428;SDS011;30134;47.866;-4.222;2022-07-23T02:28:02;1.80;;;1.20;;
44428;SDS011;30134;47.866;-4.222;2022-07-23T02:30:28;1.60;;;1.30;;
44428;SDS011;30134;47.866;-4.222;2022-07-23T02:32:55;2.15;;;1.02;;
44428;SDS011;30134;47.866;-4.222;2022-07-23T02:35:21;2.45;;;1.42;;
44428;SDS011;30134;47.866;-4.222;2022-07-23T02:37:47;1.35;;;1.20;;
44428;SDS011;30134;47.866;-4.222;2022-07-23T02:40:13;1.67;;;1.20;;
44428;SDS011;30134;47.866;-4.222;2022-07-23T02:42:39;1.60;;;1.25;;
44428;SDS011;30134;47.866;-4.222;2022-07-23T02:45:08;1.90;;;1.38;;
44428;SDS011;30134;47.866;-4.222;2022-07-23T02:47:36;1.80;;;1.30;;
44428;SDS011;30134;47.866;-4.222;2022-07-23T02:50:09;1.52;;;1.20;;
44428;SDS011;30134;47.866;-4.222;2022-07-23T02:52:35;1.20;;;1.10;;
44428;SDS011;30134;47.866;-4.222;2022-07-23T02:55:01;1.70;;;1.30;;
44428;SDS011;30134;47.866;-4.222;2022-07-23T02:57:28;1.30;;;1.15;;
44428;SDS011;30134;47.866;-4.222;2022-07-23T02:59:53;1.30;;;1.17;;
44428;SDS011;30134;47.866;-4.222;2022-07-23T03:02:19;3.03;;;1.27;;
44428;SDS011;30134;47.866;-4.222;2022-07-23T03:04:45;1.95;;;1.40;;
44428;SDS011;30134;47.866;-4.222;2022-07-23T03:07:11;2.17;;;1.35;;
44428;SDS011;30134;47.866;-4.222;2022-07-23T03:09:37;2.45;;;1.40;;
44428;SDS011;30134;47.866;-4.222;2022-07-23T03:12:03;1.88;;;1.23;;
44428;SDS011;30134;47.866;-4.222;2022-07-23T03:14:29;2.13;;;1.40;;
44428;SDS011;30134;47.866;-4.222;2022-07-23T03:16:55;1.88;;;1.48;;
44428;SDS011;30134;47.866;-4.222;2022-07-23T03:19:21;3.50;;;1.58;;
44428;SDS011;30134;47.866;-4.222;2022-07-23T03:21:47;1.95;;;1.50;;
44428;SDS011;30134;47.866;-4.222;2022-07-23T03:24:13;2.22;;;1.35;;
44428;SDS011;30134;47.866;-4.222;2022-07-23T03:26:39;1.70;;;1.30;;
44428;SDS011;30134;47.866;-4.222;2022-07-23T03:29:05;2.30;;;1.40;;
44428;SDS011;30134;47.866;-4.222;2022-07-23T03:31:31;2.90;;;1.58;;
44428;SDS011;30134;47.866;-4.222;2022-07-23T03:33:57;2.55;;;1.30;;
44428;SDS011;30134;47.866;-4.222;2022-07-23T03:36:23;1.23;;;1.13;;
44428;SDS011;30134;47.866;-4.222;2022-07-23T03:38:49;1.80;;;1.30;;
44428;SDS011;30134;47.866;-4.222;2022-07-23T03:41:16;1.30;;;1.20;;
44428;SDS011;30134;47.866;-4.222;2022-07-23T03:43:42;1.73;;;1.35;;
44428;SDS011;30134;47.866;-4.222;2022-07-23T03:46:08;1.75;;;1.30;;
44428;SDS011;30134;47.866;-4.222;2022-07-23T03:48:34;2.03;;;1.40;;
44428;SDS011;30134;47.866;-4.222;2022-07-23T03:51:08;1.55;;;1.20;;
44428;SDS011;30134;47.866;-4.222;2022-07-23T03:53:34;2.17;;;1.67;;
44428;SDS011;30134;47.866;-4.222;2022-07-23T03:56:00;1.70;;;1.48;;
44428;SDS011;30134;47.866;-4.222;2022-07-23T03:58:26;1.65;;;1.40;;
44428;SDS011;30134;47.866;-4.222;2022-07-23T04:00:52;1.60;;;1.40;;
44428;SDS011;30134;47.866;-4.222;2022-07-23T04:03:18;1.63;;;1.20;;
44428;SDS011;30134;47.866;-4.222;2022-07-23T04:05:43;1.50;;;1.27;;
44428;SDS011;30134;47.866;-4.222;2022-07-23T04:08:09;2.45;;;1.85;;
44428;SDS011;30134;47.866;-4.222;2022-07-23T04:10:35;2.72;;;1.80;;
44428;SDS011;30134;47.866;-4.222;2022-07-23T04:13:01;2.13;;;1.58;;
44428;SDS011;30134;47.866;-4.222;2022-07-23T04:15:27;1.45;;;1.35;;
44428;SDS011;30134;47.866;-4.222;2022-07-23T04:17:54;1.40;;;1.30;;
44428;SDS011;30134;47.866;-4.222;2022-07-23T04:20:19;2.35;;;1.70;;
44428;SDS011;30134;47.866;-4.222;2022-07-23T04:22:45;1.65;;;1.42;;
44428;SDS011;30134;47.866;-4.222;2022-07-23T04:25:11;1.67;;;1.48;;
44428;SDS011;30134;47.866;-4.222;2022-07-23T04:27:41;2.08;;;1.58;;
44428;SDS011;30134;47.866;-4.222;2022-07-23T04:30:07;2.03;;;1.80;;
44428;SDS011;30134;47.866;-4.222;2022-07-23T04:32:34;1.90;;;1.25;;
44428;SDS011;30134;47.866;-4.222;2022-07-23T04:35:00;2.75;;;1.77;;
44428;SDS011;30134;47.866;-4.222;2022-07-23T04:37:25;1.88;;;1.40;;
44428;SDS011;30134;47.866;-4.222;2022-07-23T04:39:51;1.85;;;1.52;;
44428;SDS011;30134;47.866;-4.222;2022-07-23T04:42:17;2.17;;;1.90;;
44428;SDS011;30134;47.866;-4.222;2022-07-23T04:44:43;12.90;;;10.50;;
44428;SDS011;30134;47.866;-4.222;2022-07-23T04:47:09;19.45;;;14.25;;
44428;SDS011;30134;47.866;-4.222;2022-07-23T04:49:35;19.67;;;16.67;;
44428;SDS011;30134;47.866;-4.222;2022-07-23T04:52:08;17.15;;;14.20;;
44428;SDS011;30134;47.866;-4.222;2022-07-23T04:54:34;16.25;;;13.25;;
44428;SDS011;30134;47.866;-4.222;2022-07-23T04:57:00;13.52;;;10.05;;
44428;SDS011;30134;47.866;-4.222;2022-07-23T04:59:26;9.18;;;7.68;;
44428;SDS011;30134;47.866;-4.222;2022-07-23T05:01:52;8.05;;;6.93;;
44428;SDS011;30134;47.866;-4.222;2022-07-23T05:04:18;7.90;;;6.45;;
44428;SDS011;30134;47.866;-4.222;2022-07-23T05:06:44;9.25;;;6.82;;
44428;SDS011;30134;47.866;-4.222;2022-07-23T05:09:09;7.13;;;5.60;;
44428;SDS011;30134;47.866;-4.222;2022-07-23T05:11:35;10.63;;;6.70;;
44428;SDS011;30134;47.866;-4.222;2022-07-23T05:14:01;8.85;;;6.35;;
44428;SDS011;30134;47.866;-4.222;2022-07-23T05:16:27;8.18;;;5.70;;
44428;SDS011;30134;47.866;-4.222;2022-07-23T05:18:53;7.13;;;6.05;;
44428;SDS011;30134;47.866;-4.222;2022-07-23T05:21:19;7.30;;;5.95;;
44428;SDS011;30134;47.866;-4.222;2022-07-23T05:23:45;6.43;;;5.00;;
44428;SDS011;30134;47.866;-4.222;2022-07-23T05:26:12;6.85;;;5.80;;
44428;SDS011;30134;47.866;-4.222;2022-07-23T05:28:38;7.35;;;5.60;;
44428;SDS011;30134;47.866;-4.222;2022-07-23T05:31:04;5.32;;;4.80;;
44428;SDS011;30134;47.866;-4.222;2022-07-23T05:33:31;6.53;;;4.88;;
44428;SDS011;30134;47.866;-4.222;2022-07-23T05:36:03;5.75;;;4.85;;
44428;SDS011;30134;47.866;-4.222;2022-07-23T05:38:31;5.70;;;4.68;;
44428;SDS011;30134;47.866;-4.222;2022-07-23T05:40:58;7.72;;;4.97;;
44428;SDS011;30134;47.866;-4.222;2022-07-23T05:43:24;4.72;;;4.30;;
44428;SDS011;30134;47.866;-4.222;2022-07-23T05:45:50;7.18;;;4.43;;
44428;SDS011;30134;47.866;-4.222;2022-07-23T05:48:16;5.78;;;4.43;;
44428;SDS011;30134;47.866;-4.222;2022-07-23T05:50:42;5.20;;;3.90;;
44428;SDS011;30134;47.866;-4.222;2022-07-23T05:53:15;5.57;;;4.15;;
44428;SDS011;30134;47.866;-4.222;2022-07-23T05:55:41;6.15;;;3.80;;
44428;SDS011;30134;47.866;-4.222;2022-07-23T05:58:07;4.32;;;3.80;;
44428;SDS011;30134;47.866;-4.222;2022-07-23T06:00:34;4.60;;;3.67;;
44428;SDS011;30134;47.866;-4.222;2022-07-23T06:03:00;5.88;;;3.72;;
44428;SDS011;30134;47.866;-4.222;2022-07-23T06:05:26;4.18;;;3.78;;
44428;SDS011;30134;47.866;-4.222;2022-07-23T06:07:52;4.78;;;3.67;;
44428;SDS011;30134;47.866;-4.222;2022-07-23T06:10:19;4.00;;;3.50;;
44428;SDS011;30134;47.866;-4.222;2022-07-23T06:12:46;5.43;;;3.55;;
44428;SDS011;30134;47.866;-4.222;2022-07-23T06:15:12;5.05;;;3.20;;
44428;SDS011;30134;47.866;-4.222;2022-07-23T06:17:38;3.75;;;3.30;;
44428;SDS011;30134;47.866;-4.222;2022-07-23T06:20:08;3.75;;;3.30;;
44428;SDS011;30134;47.866;-4.222;2022-07-23T06:22:35;4.32;;;3.35;;
44428;SDS011;30134;47.866;-4.222;2022-07-23T06:25:02;5.63;;;3.47;;
44428;SDS011;30134;47.866;-4.222;2022-07-23T06:27:28;4.55;;;3.22;;
44428;SDS011;30134;47.866;-4.222;2022-07-23T06:29:54;3.47;;;2.65;;
44428;SDS011;30134;47.866;-4.222;2022-07-23T06:32:20;3.53;;;2.80;;
44428;SDS011;30134;47.866;-4.222;2022-07-23T06:34:46;3.15;;;2.65;;
44428;SDS011;30134;47.866;-4.222;2022-07-23T06:37:12;2.80;;;2.50;;
44428;SDS011;30134;47.866;-4.222;2022-07-23T06:39:38;3.28;;;2.72;;
44428;SDS011;30134;47.866;-4.222;2022-07-23T06:42:04;3.45;;;2.72;;
44428;SDS011;30134;47.866;-4.222;2022-07-23T06:44:30;5.97;;;2.97;;
44428;SDS011;30134;47.866;-4.222;2022-07-23T06:46:56;3.50;;;2.88;;
44428;SDS011;30134;47.866;-4.222;2022-07-23T06:49:22;4.38;;;2.75;;
44428;SDS011;30134;47.866;-4.222;2022-07-23T06:51:48;4.05;;;2.70;;
44428;SDS011;30134;47.866;-4.222;2022-07-23T06:54:21;3.60;;;2.40;;
44428;SDS011;30134;47.866;-4.222;2022-07-23T06:56:47;3.60;;;2.60;;
44428;SDS011;30134;47.866;-4.222;2022-07-23T06:59:13;3.85;;;2.58;;
44428;SDS011;30134;47.866;-4.222;2022-07-23T07:01:39;3.45;;;2.35;;
44428;SDS011;30134;47.866;-4.222;2022-07-23T07:04:05;3.28;;;2.20;;
44428;SDS011;30134;47.866;-4.222;2022-07-23T07:06:31;2.70;;;2.30;;
44428;SDS011;30134;47.866;-4.222;2022-07-23T07:08:57;3.38;;;2.28;;
44428;SDS011;30134;47.866;-4.222;2022-07-23T07:11:23;2.40;;;2.00;;
44428;SDS011;30134;47.866;-4.222;2022-07-23T07:13:50;2.78;;;2.22;;
44428;SDS011;30134;47.866;-4.222;2022-07-23T07:16:17;3.05;;;2.30;;
44428;SDS011;30134;47.866;-4.222;2022-07-23T07:18:43;2.67;;;1.80;;
44428;SDS011;30134;47.866;-4.222;2022-07-23T07:21:09;2.75;;;2.13;;
44428;SDS011;30134;47.866;-4.222;2022-07-23T07:23:36;3.22;;;2.22;;
44428;SDS011;30134;47.866;-4.222;2022-07-23T07:26:02;2.70;;;2.25;;
44428;SDS011;30134;47.866;-4.222;2022-07-23T07:28:28;2.83;;;2.05;;
44428;SDS011;30134;47.866;-4.222;2022-07-23T07:30:54;3.08;;;2.13;;
44428;SDS011;30134;47.866;-4.222;2022-07-23T07:33:20;3.10;;;1.75;;
44428;SDS011;30134;47.866;-4.222;2022-07-23T07:35:47;5.28;;;1.98;;
44428;SDS011;30134;47.866;-4.222;2022-07-23T07:38:16;5.50;;;1.90;;
44428;SDS011;30134;47.866;-4.222;2022-07-23T07:40:42;3.17;;;1.63;;
44428;SDS011;30134;47.866;-4.222;2022-07-23T07:43:09;4.28;;;1.67;;
44428;SDS011;30134;47.866;-4.222;2022-07-23T07:45:36;2.25;;;1.40;;
44428;SDS011;30134;47.866;-4.222;2022-07-23T07:48:02;3.08;;;1.30;;
44428;SDS011;30134;47.866;-4.222;2022-07-23T07:50:29;2.40;;;1.35;;
44428;SDS011;30134;47.866;-4.222;2022-07-23T07:52:55;4.00;;;1.30;;
44428;SDS011;30134;47.866;-4.222;2022-07-23T07:55:28;4.88;;;1.42;;
44428;SDS011;30134;47.866;-4.222;2022-07-23T07:57:54;6.68;;;1.50;;
44428;SDS011;30134;47.866;-4.222;2022-07-23T08:00:20;3.55;;;1.45;;
44428;SDS011;30134;47.866;-4.222;2022-07-23T08:02:48;3.33;;;1.30;;
44428;SDS011;30134;47.866;-4.222;2022-07-23T08:05:20;4.95;;;1.17;;
44428;SDS011;30134;47.866;-4.222;2022-07-23T08:07:50;3.55;;;1.33;;
44428;SDS011;30134;47.866;-4.222;2022-07-23T08:10:19;5.13;;;1.17;;
44428;SDS011;30134;47.866;-4.222;2022-07-23T08:12:52;1.95;;;1.10;;
44428;SDS011;30134;47.866;-4.222;2022-07-23T08:15:24;1.98;;;0.98;;
44428;SDS011;30134;47.866;-4.222;2022-07-23T08:17:52;4.47;;;1.10;;
44428;SDS011;30134;47.866;-4.222;2022-07-23T08:20:19;2.00;;;1.05;;
44428;SDS011;30134;47.866;-4.222;2022-07-23T08:25:22;1.58;;;0.90;;
44428;SDS011;30134;47.866;-4.222;2022-07-23T08:27:57;1.15;;;0.82;;
44428;SDS011;30134;47.866;-4.222;2022-07-23T08:30:25;4.68;;;1.27;;
44428;SDS011;30134;47.866;-4.222;2022-07-23T08:32:56;3.50;;;1.67;;
44428;SDS011;30134;47.866;-4.222;2022-07-23T08:35:37;2.95;;;1.80;;
44428;SDS011;30134;47.866;-4.222;2022-07-23T08:38:12;1.58;;;1.40;;
44428;SDS011;30134;47.866;-4.222;2022-07-23T08:40:41;1.67;;;1.30;;
44428;SDS011;30134;47.866;-4.222;2022-07-23T08:43:12;1.65;;;1.20;;
44428;SDS011;30134;47.866;-4.222;2022-07-23T08:45:45;1.52;;;0.93;;
44428;SDS011;30134;47.866;-4.222;2022-07-23T08:50:48;1.88;;;1.00;;
44428;SDS011;30134;47.866;-4.222;2022-07-23T08:53:17;2.30;;;1.00;;
44428;SDS011;30134;47.866;-4.222;2022-07-23T08:55:52;3.63;;;1.20;;
44428;SDS011;30134;47.866;-4.222;2022-07-23T08:58:21;1.38;;;0.80;;
44428;SDS011;30134;47.866;-4.222;2022-07-23T09:00:48;1.00;;;0.82;;
44428;SDS011;30134;47.866;-4.222;2022-07-23T09:03:15;1.90;;;1.00;;
44428;SDS011;30134;47.866;-4.222;2022-07-23T09:05:42;1.35;;;0.90;;
44428;SDS011;30134;47.866;-4.222;2022-07-23T09:08:22;1.73;;;1.02;;
44428;SDS011;30134;47.866;-4.222;2022-07-23T09:11:02;1.67;;;0.90;;
44428;SDS011;30134;47.866;-4.222;2022-07-23T09:29:16;1.63;;;1.00;;
44428;SDS011;30134;47.866;-4.222;2022-07-23T09:31:48;1.45;;;0.93;;
44428;SDS011;30134;47.866;-4.222;2022-07-23T09:39:39;0.90;;;0.70;;
44428;SDS011;30134;47.866;-4.222;2022-07-23T09:44:51;1.52;;;0.70;;
44428;SDS011;30134;47.866;-4.222;2022-07-23T09:47:20;1.35;;;0.90;;
44428;SDS011;30134;47.866;-4.222;2022-07-23T09:50:04;1.85;;;0.70;;
44428;SDS011;30134;47.866;-4.222;2022-07-23T09:52:45;1.63;;;0.73;;
44428;SDS011;30134;47.866;-4.222;2022-07-23T09:55:15;0.60;;;0.60;;
44428;SDS011;30134;47.866;-4.222;2022-07-23T09:57:49;3.35;;;0.88;;
44428;SDS011;30134;47.866;-4.222;2022-07-23T10:00:15;1.52;;;0.77;;
44428;SDS011;30134;47.866;-4.222;2022-07-23T10:02:42;1.42;;;0.60;;
44428;SDS011;30134;47.866;-4.222;2022-07-23T10:05:12;0.93;;;0.50;;
44428;SDS011;30134;47.866;-4.222;2022-07-23T10:07:39;0.85;;;0.70;;
44428;SDS011;30134;47.866;-4.222;2022-07-23T10:10:09;0.88;;;0.65;;
44428;SDS011;30134;47.866;-4.222;2022-07-23T10:12:36;1.20;;;0.80;;
44428;SDS011;30134;47.866;-4.222;2022-07-23T10:15:03;1.63;;;0.88;;
44428;SDS011;30134;47.866;-4.222;2022-07-23T10:17:36;1.50;;;0.88;;
44428;SDS011;30134;47.866;-4.222;2022-07-23T10:20:03;1.52;;;0.77;;
44428;SDS011;30134;47.866;-4.222;2022-07-23T10:22:31;3.17;;;0.90;;
44428;SDS011;30134;47.866;-4.222;2022-07-23T10:37:07;1.10;;;1.00;;
44428;SDS011;30134;47.866;-4.222;2022-07-23T10:40:21;3.83;;;1.83;;
44428;SDS011;30134;47.866;-4.222;2022-07-23T10:42:51;3.72;;;2.25;;
44428;SDS011;30134;47.866;-4.222;2022-07-23T10:45:28;6.05;;;2.20;;
44428;SDS011;30134;47.866;-4.222;2022-07-23T10:50:44;1.30;;;1.17;;
44428;SDS011;30134;47.866;-4.222;2022-07-23T10:53:52;2.22;;;1.20;;
44428;SDS011;30134;47.866;-4.222;2022-07-23T10:59:27;2.45;;;1.00;;
44428;SDS011;30134;47.866;-4.222;2022-07-23T11:01:53;1.88;;;1.10;;
44428;SDS011;30134;47.866;-4.222;2022-07-23T11:04:49;2.30;;;0.95;;
44428;SDS011;30134;47.866;-4.222;2022-07-23T11:07:17;2.13;;;1.30;;
44428;SDS011;30134;47.866;-4.222;2022-07-23T11:09:47;2.80;;;1.00;;
44428;SDS011;30134;47.866;-4.222;2022-07-23T11:17:28;1.35;;;1.00;;
44428;SDS011;30134;47.866;-4.222;2022-07-23T11:25:10;3.33;;;1.50;;
44428;SDS011;30134;47.866;-4.222;2022-07-23T11:27:56;2.63;;;1.00;;
44428;SDS011;30134;47.866;-4.222;2022-07-23T11:30:45;1.88;;;0.98;;
44428;SDS011;30134;47.866;-4.222;2022-07-23T11:35:39;3.38;;;1.10;;
44428;SDS011;30134;47.866;-4.222;2022-07-23T11:38:21;3.53;;;2.30;;
44428;SDS011;30134;47.866;-4.222;2022-07-23T11:40:51;2.75;;;2.10;;
44428;SDS011;30134;47.866;-4.222;2022-07-23T11:43:22;3.00;;;1.95;;
44428;SDS011;30134;47.866;-4.222;2022-07-23T11:45:51;2.00;;;1.60;;
44428;SDS011;30134;47.866;-4.222;2022-07-23T11:48:28;3.00;;;1.65;;
44428;SDS011;30134;47.866;-4.222;2022-07-23T11:50:56;4.72;;;1.50;;
44428;SDS011;30134;47.866;-4.222;2022-07-23T11:53:25;4.53;;;1.40;;
44428;SDS011;30134;47.866;-4.222;2022-07-23T11:55:54;3.28;;;1.40;;
44428;SDS011;30134;47.866;-4.222;2022-07-23T11:58:35;3.90;;;1.67;;
44428;SDS011;30134;47.866;-4.222;2022-07-23T12:01:09;2.15;;;1.30;;
44428;SDS011;30134;47.866;-4.222;2022-07-23T12:03:35;2.50;;;1.35;;
44428;SDS011;30134;47.866;-4.222;2022-07-23T12:06:01;1.90;;;1.30;;
44428;SDS011;30134;47.866;-4.222;2022-07-23T12:08:27;2.17;;;1.25;;
44428;SDS011;30134;47.866;-4.222;2022-07-23T12:10:53;1.65;;;1.10;;
44428;SDS011;30134;47.866;-4.222;2022-07-23T12:13:19;1.92;;;1.17;;
44428;SDS011;30134;47.866;-4.222;2022-07-23T12:15:50;1.50;;;1.10;;
44428;SDS011;30134;47.866;-4.222;2022-07-23T12:18:25;2.45;;;1.30;;
44428;SDS011;30134;47.866;-4.222;2022-07-23T12:20:56;1.85;;;1.20;;
44428;SDS011;30134;47.866;-4.222;2022-07-23T12:23:30;1.33;;;1.20;;
44428;SDS011;30134;47.866;-4.222;2022-07-23T12:26:00;1.83;;;1.27;;
44428;SDS011;30134;47.866;-4.222;2022-07-23T12:28:31;1.45;;;1.13;;
44428;SDS011;30134;47.866;-4.222;2022-07-23T12:30:58;2.10;;;1.23;;
44428;SDS011;30134;47.866;-4.222;2022-07-23T12:33:25;8.00;;;1.48;;
44428;SDS011;30134;47.866;-4.222;2022-07-23T12:35:54;3.40;;;1.23;;
44428;SDS011;30134;47.866;-4.222;2022-07-23T12:38:23;2.85;;;1.20;;
44428;SDS011;30134;47.866;-4.222;2022-07-23T12:40:58;2.17;;;1.40;;
44428;SDS011;30134;47.866;-4.222;2022-07-23T12:45:55;3.88;;;2.42;;
44428;SDS011;30134;47.866;-4.222;2022-07-23T12:51:17;3.55;;;1.90;;
44428;SDS011;30134;47.866;-4.222;2022-07-23T12:53:52;3.00;;;1.48;;
44428;SDS011;30134;47.866;-4.222;2022-07-23T12:56:30;2.78;;;1.33;;
44428;SDS011;30134;47.866;-4.222;2022-07-23T13:01:38;2.85;;;1.35;;
44428;SDS011;30134;47.866;-4.222;2022-07-23T13:04:29;2.55;;;1.30;;
44428;SDS011;30134;47.866;-4.222;2022-07-23T13:07:00;2.85;;;1.52;;
44428;SDS011;30134;47.866;-4.222;2022-07-23T13:09:27;2.00;;;1.33;;
44428;SDS011;30134;47.866;-4.222;2022-07-23T13:11:58;1.58;;;1.15;;
44428;SDS011;30134;47.866;-4.222;2022-07-23T13:14:25;2.53;;;1.52;;
44428;SDS011;30134;47.866;-4.222;2022-07-23T13:16:53;2.85;;;1.40;;
44428;SDS011;30134;47.866;-4.222;2022-07-23T13:19:20;1.70;;;1.13;;
44428;SDS011;30134;47.866;-4.222;2022-07-23T13:21:53;2.53;;;1.27;;
44428;SDS011;30134;47.866;-4.222;2022-07-23T13:24:20;2.30;;;1.40;;
44428;SDS011;30134;47.866;-4.222;2022-07-23T13:26:47;1.52;;;1.23;;
44428;SDS011;30134;47.866;-4.222;2022-07-23T13:29:17;1.80;;;1.20;;
44428;SDS011;30134;47.866;-4.222;2022-07-23T13:31:44;2.25;;;1.20;;
44428;SDS011;30134;47.866;-4.222;2022-07-23T13:34:10;2.33;;;1.10;;
44428;SDS011;30134;47.866;-4.222;2022-07-23T13:36:36;1.77;;;1.25;;
44428;SDS011;30134;47.866;-4.222;2022-07-23T13:39:03;1.08;;;0.98;;
44428;SDS011;30134;47.866;-4.222;2022-07-23T13:41:30;2.03;;;1.00;;
44428;SDS011;30134;47.866;-4.222;2022-07-23T13:43:56;1.50;;;1.15;;
44428;SDS011;30134;47.866;-4.222;2022-07-23T13:46:23;1.52;;;1.00;;
44428;SDS011;30134;47.866;-4.222;2022-07-23T13:48:49;1.95;;;1.10;;
44428;SDS011;30134;47.866;-4.222;2022-07-23T13:51:15;1.85;;;1.10;;
44428;SDS011;30134;47.866;-4.222;2022-07-23T13:53:46;1.20;;;1.00;;
44428;SDS011;30134;47.866;-4.222;2022-07-23T13:56:12;2.00;;;1.00;;
44428;SDS011;30134;47.866;-4.222;2022-07-23T13:58:38;1.70;;;1.08;;
44428;SDS011;30134;47.866;-4.222;2022-07-23T14:01:05;1.00;;;0.85;;
44428;SDS011;30134;47.866;-4.222;2022-07-23T14:03:35;3.25;;;1.20;;
44428;SDS011;30134;47.866;-4.222;2022-07-23T14:06:01;2.25;;;1.20;;
44428;SDS011;30134;47.866;-4.222;2022-07-23T14:08:28;2.70;;;1.30;;
44428;SDS011;30134;47.866;-4.222;2022-07-23T14:10:54;2.22;;;0.93;;
44428;SDS011;30134;47.866;-4.222;2022-07-23T14:13:20;3.38;;;2.40;;
44428;SDS011;30134;47.866;-4.222;2022-07-23T14:15:46;2.50;;;2.30;;
44428;SDS011;30134;47.866;-4.222;2022-07-23T14:18:12;3.33;;;2.58;;
44428;SDS011;30134;47.866;-4.222;2022-07-23T14:20:37;4.28;;;1.80;;
44428;SDS011;30134;47.866;-4.222;2022-07-23T14:23:03;2.55;;;1.45;;
44428;SDS011;30134;47.866;-4.222;2022-07-23T14:25:29;2.47;;;1.60;;
44428;SDS011;30134;47.866;-4.222;2022-07-23T14:27:55;2.70;;;1.65;;
44428;SDS011;30134;47.866;-4.222;2022-07-23T14:30:22;2.65;;;1.40;;
44428;SDS011;30134;47.866;-4.222;2022-07-23T14:32:51;2.85;;;1.40;;
44428;SDS011;30134;47.866;-4.222;2022-07-23T14:35:17;1.90;;;1.30;;
44428;SDS011;30134;47.866;-4.222;2022-07-23T14:37:47;1.75;;;1.17;;
44428;SDS011;30134;47.866;-4.222;2022-07-23T14:40:12;1.25;;;1.15;;
44428;SDS011;30134;47.866;-4.222;2022-07-23T14:42:38;3.10;;;1.45;;
44428;SDS011;30134;47.866;-4.222;2022-07-23T14:45:04;1.42;;;1.10;;
44428;SDS011;30134;47.866;-4.222;2022-07-23T14:47:31;1.48;;;1.17;;
44428;SDS011;30134;47.866;-4.222;2022-07-23T14:50:06;1.23;;;1.08;;
44428;SDS011;30134;47.866;-4.222;2022-07-23T14:52:33;2.55;;;1.13;;
44428;SDS011;30134;47.866;-4.222;2022-07-23T14:54:59;1.70;;;1.10;;
44428;SDS011;30134;47.866;-4.222;2022-07-23T14:57:25;2.20;;;1.45;;
44428;SDS011;30134;47.866;-4.222;2022-07-23T14:59:51;1.05;;;0.93;;
44428;SDS011;30134;47.866;-4.222;2022-07-23T15:02:18;1.33;;;1.00;;
44428;SDS011;30134;47.866;-4.222;2022-07-23T15:04:50;3.17;;;1.20;;
44428;SDS011;30134;47.866;-4.222;2022-07-23T15:07:16;1.05;;;0.95;;
44428;SDS011;30134;47.866;-4.222;2022-07-23T15:09:42;1.80;;;1.10;;
44428;SDS011;30134;47.866;-4.222;2022-07-23T15:12:08;2.22;;;1.00;;
44428;SDS011;30134;47.866;-4.222;2022-07-23T15:14:34;2.05;;;1.25;;
44428;SDS011;30134;47.866;-4.222;2022-07-23T15:16:59;1.48;;;0.90;;
44428;SDS011;30134;47.866;-4.222;2022-07-23T15:19:25;2.13;;;1.00;;
44428;SDS011;30134;47.866;-4.222;2022-07-23T15:21:51;2.72;;;1.00;;
44428;SDS011;30134;47.866;-4.222;2022-07-23T15:24:20;1.52;;;1.00;;
44428;SDS011;30134;47.866;-4.222;2022-07-23T15:26:46;3.47;;;0.73;;
44428;SDS011;30134;47.866;-4.222;2022-07-23T15:29:12;0.90;;;0.82;;
44428;SDS011;30134;47.866;-4.222;2022-07-23T15:31:38;1.60;;;0.90;;
44428;SDS011;30134;47.866;-4.222;2022-07-23T15:34:04;1.40;;;0.80;;
44428;SDS011;30134;47.866;-4.222;2022-07-23T15:36:30;1.80;;;1.10;;
44428;SDS011;30134;47.866;-4.222;2022-07-23T15:38:56;1.13;;;1.00;;
44428;SDS011;30134;47.866;-4.222;2022-07-23T15:41:22;2.10;;;1.00;;
44428;SDS011;30134;47.866;-4.222;2022-07-23T15:43:47;0.80;;;0.80;;
44428;SDS011;30134;47.866;-4.222;2022-07-23T15:46:21;1.58;;;1.00;;
44428;SDS011;30134;47.866;-4.222;2022-07-23T15:48:48;0.85;;;0.77;;
44428;SDS011;30134;47.866;-4.222;2022-07-23T15:51:14;1.75;;;1.05;;